Main page
METAR-TAF:

METAR-TAF

Airports :

Dresden, Germany

Dresden Airport

latitude: 51-08N, longitude: 013-45E, elevation: 230 m

Current weather observation

The report was made 41 minutes ago, at 13:50 UTC
Wind 10 kt from the South/Southeast
Temperature 28°C
Humidity 30%
Pressure 1019 hPa
Visibility 10 km or more
no clouds below 1500 m and no cumulonimbus

METAR: EDDC 281350Z 16010KT CAVOK 28/09 Q1019 NOSIG

Time: 16:31 (14:31 UTC)

Forecast

The report was made 3 hours and 31 minutes ago, at 11:00 UTC
Forecast valid from 28 at 12 UTC to 29 at 12 UTC
Wind 8 kt from the South
Visibility 10 km or more
no clouds below 1500 m and no cumulonimbus
Becoming
from 29 at 07 UTC to 29 at 09 UTC
Wind 5 kt from the West/Southwest

TAF: EDDC 281100Z 2812/2912 17008KT CAVOK BECMG 2907/2909 24005KT

Weather observations and forecasts of more than 4000 airports (METAR and TAF reports).

The available stations are represented by yellow and red dots on the map.

Hover mouse over dot to see the name of the station.

Then click to see weather observations and forecasts.

To change the map : click on the green buttons with a black cross to zoom in, on the green button with a dash to zoom out, or on the green arrows for adjacent maps.


METAR-TAF: